createdAt,value
2023-04-25T00:01:13.989Z,99.90
2023-04-25T00:03:41.518Z,99.90
2023-04-25T00:06:09.455Z,99.90
2023-04-25T00:08:37.096Z,99.90
2023-04-25T00:11:04.653Z,99.90
2023-04-25T00:13:31.940Z,99.90
2023-04-25T00:15:59.572Z,99.90
2023-04-25T00:18:29.866Z,99.90
2023-04-25T00:20:57.357Z,99.90
2023-04-25T00:23:25.012Z,99.90
2023-04-25T00:25:52.400Z,99.90
2023-04-25T00:28:19.777Z,99.90
2023-04-25T00:30:47.772Z,99.90
2023-04-25T00:33:15.139Z,99.90
2023-04-25T00:35:42.693Z,99.90
2023-04-25T00:38:10.009Z,99.90
2023-04-25T00:40:37.353Z,99.90
2023-04-25T00:43:05.237Z,99.90
2023-04-25T00:45:32.577Z,99.90
2023-04-25T00:47:59.905Z,99.90
2023-04-25T00:50:27.274Z,99.90
2023-04-25T00:52:54.727Z,99.90
2023-04-25T00:55:22.134Z,99.90
2023-04-25T00:57:50.284Z,99.90
2023-04-25T01:00:18.179Z,99.90
2023-04-25T01:02:46.085Z,99.90
2023-04-25T01:05:14.373Z,99.90
2023-04-25T01:07:42.088Z,99.90
2023-04-25T01:10:10.025Z,99.90
2023-04-25T01:12:38.551Z,99.90
2023-04-25T01:15:06.362Z,99.90
2023-04-25T01:17:35.174Z,99.90
2023-04-25T01:20:05.121Z,99.90
2023-04-25T01:22:33.277Z,99.90
2023-04-25T01:25:01.083Z,99.90
2023-04-25T01:27:29.041Z,99.90
2023-04-25T01:29:56.770Z,99.90
2023-04-25T01:32:24.572Z,99.90
2023-04-25T01:34:51.891Z,99.90
2023-04-25T01:37:21.044Z,99.90
2023-04-25T01:39:49.712Z,99.90
2023-04-25T01:42:17.058Z,99.90
2023-04-25T01:44:44.401Z,99.90
2023-04-25T01:47:12.162Z,99.90
2023-04-25T01:49:39.558Z,99.90
2023-04-25T01:52:06.922Z,99.90
2023-04-25T01:54:34.216Z,99.90
2023-04-25T01:57:02.722Z,99.90
2023-04-25T01:59:30.532Z,99.90
2023-04-25T02:02:20.727Z,99.90
2023-04-25T02:04:48.294Z,99.90
2023-04-25T02:07:16.783Z,99.90
2023-04-25T02:09:49.573Z,99.90
2023-04-25T02:12:18.399Z,99.90
2023-04-25T02:15:06.975Z,99.90
2023-04-25T02:17:46.181Z,99.90
2023-04-25T02:20:13.626Z,99.90
2023-04-25T02:22:40.947Z,99.90
2023-04-25T02:25:08.852Z,99.90
2023-04-25T02:27:36.954Z,99.90
2023-04-25T02:30:05.848Z,99.90
2023-04-25T02:32:35.337Z,99.90
2023-04-25T02:35:04.955Z,99.90
2023-04-25T02:37:32.992Z,99.90
2023-04-25T02:40:00.369Z,99.90
2023-04-25T02:42:28.173Z,99.90
2023-04-25T02:44:55.620Z,99.90
2023-04-25T02:47:23.021Z,99.90
2023-04-25T02:49:51.038Z,99.90
2023-04-25T02:52:18.405Z,99.90
2023-04-25T02:54:51.566Z,99.90
2023-04-25T02:57:18.902Z,99.90
2023-04-25T02:59:46.374Z,99.90
2023-04-25T03:02:13.735Z,99.90
2023-04-25T03:04:41.343Z,99.90
2023-04-25T03:07:09.069Z,99.90
2023-04-25T03:09:36.482Z,99.90
2023-04-25T03:12:04.328Z,99.90
2023-04-25T03:14:32.765Z,99.90
2023-04-25T03:17:00.192Z,99.90
2023-04-25T03:19:27.565Z,99.90
2023-04-25T03:21:54.936Z,99.90
2023-04-25T03:24:23.066Z,99.90
2023-04-25T03:26:50.558Z,99.90
2023-04-25T03:29:17.892Z,99.90
2023-04-25T03:31:46.550Z,99.90
2023-04-25T03:34:15.661Z,99.90
2023-04-25T03:36:43.114Z,99.90
2023-04-25T03:39:11.311Z,99.90
2023-04-25T03:41:39.687Z,99.90
2023-04-25T03:44:13.052Z,99.90
2023-04-25T03:46:41.238Z,99.90
2023-04-25T03:49:08.666Z,99.90
2023-04-25T03:52:08.319Z,99.90
2023-04-25T03:54:39.610Z,99.90
2023-04-25T03:57:11.378Z,99.90
2023-04-25T03:59:40.675Z,99.90
2023-04-25T04:02:10.432Z,99.90
2023-04-25T04:04:38.562Z,99.90
2023-04-25T04:07:07.057Z,99.90
2023-04-25T04:09:40.327Z,99.90
2023-04-25T04:12:11.364Z,99.90
2023-04-25T04:14:41.345Z,99.90
2023-04-25T04:17:08.649Z,99.90
2023-04-25T04:19:36.379Z,99.90
2023-04-25T04:22:09.526Z,99.90
2023-04-25T04:24:36.864Z,99.90
2023-04-25T04:27:07.344Z,99.90
2023-04-25T04:29:40.773Z,99.90
2023-04-25T04:32:26.282Z,99.90
2023-04-25T04:34:55.965Z,99.90
2023-04-25T04:37:25.086Z,99.90
2023-04-25T04:39:52.973Z,99.90
2023-04-25T04:42:32.569Z,99.90
2023-04-25T04:45:23.341Z,99.90
2023-04-25T04:48:09.717Z,99.90
2023-04-25T04:50:57.308Z,99.90
2023-04-25T04:53:59.369Z,99.90
2023-04-25T04:56:53.526Z,99.90
2023-04-25T04:59:36.533Z,99.90
2023-04-25T05:02:23.503Z,99.90
2023-04-25T05:05:11.361Z,99.90
2023-04-25T05:07:57.076Z,99.90
2023-04-25T05:10:47.352Z,99.90
2023-04-25T05:13:31.414Z,99.90
2023-04-25T05:16:17.318Z,99.90
2023-04-25T05:19:11.771Z,99.90
2023-04-25T05:21:51.253Z,99.90
2023-04-25T05:24:38.820Z,99.90
2023-04-25T05:27:32.007Z,99.90
2023-04-25T05:30:17.389Z,99.90
2023-04-25T05:33:03.467Z,99.90
2023-04-25T05:35:31.081Z,99.90
2023-04-25T05:37:58.545Z,99.90
2023-04-25T05:40:40.846Z,99.90
2023-04-25T05:43:33.951Z,99.90
2023-04-25T05:46:19.796Z,99.90
2023-04-25T05:49:06.735Z,99.90
2023-04-25T05:51:57.165Z,99.90
2023-04-25T05:54:47.681Z,99.90
2023-04-25T05:57:25.783Z,99.90
2023-04-25T05:59:54.527Z,99.90
2023-04-25T06:02:23.196Z,99.90
2023-04-25T06:04:52.186Z,99.90
2023-04-25T06:07:20.957Z,99.90
2023-04-25T06:09:48.325Z,99.90
2023-04-25T06:12:16.405Z,99.90
2023-04-25T06:14:43.895Z,99.90
2023-04-25T06:17:11.241Z,99.90
2023-04-25T06:19:38.870Z,99.90
2023-04-25T06:22:07.747Z,99.90
2023-04-25T06:24:36.441Z,99.90
2023-04-25T06:27:05.307Z,99.90
2023-04-25T06:29:32.692Z,99.90
2023-04-25T06:32:00.135Z,99.90
2023-04-25T06:34:27.558Z,99.90
2023-04-25T06:36:54.903Z,99.90
2023-04-25T06:39:24.345Z,99.90
2023-04-25T06:41:51.910Z,99.90
2023-04-25T06:44:51.289Z,99.90
2023-04-25T06:47:20.259Z,99.90
2023-04-25T06:49:47.699Z,99.90
2023-04-25T06:52:15.373Z,99.90
2023-04-25T06:54:43.046Z,99.90
2023-04-25T06:57:20.604Z,99.90
2023-04-25T06:59:48.060Z,99.90
2023-04-25T07:02:15.845Z,99.90
2023-04-25T07:04:43.792Z,99.90
2023-04-25T07:07:11.310Z,99.90
2023-04-25T07:09:45.768Z,99.90
2023-04-25T07:12:13.164Z,99.90
2023-04-25T07:14:40.657Z,99.90
2023-04-25T07:17:09.390Z,99.90
2023-04-25T07:19:38.394Z,99.90
2023-04-25T07:22:07.836Z,99.90
2023-04-25T07:24:37.013Z,99.90
2023-04-25T07:27:08.685Z,99.90
2023-04-25T07:29:53.341Z,99.90
2023-04-25T07:32:23.426Z,99.90
2023-04-25T07:34:51.306Z,99.90
2023-04-25T07:37:19.848Z,99.90
2023-04-25T07:40:04.901Z,99.90
2023-04-25T07:42:33.454Z,99.90
2023-04-25T07:45:01.927Z,99.90
2023-04-25T07:47:29.877Z,99.90
2023-04-25T07:49:58.863Z,99.90
2023-04-25T07:52:26.321Z,99.90
2023-04-25T07:55:01.869Z,99.90
2023-04-25T07:57:41.709Z,99.90
2023-04-25T08:00:12.517Z,99.90
2023-04-25T08:02:47.270Z,99.90
2023-04-25T08:05:20.325Z,99.90
2023-04-25T08:07:54.807Z,99.90
2023-04-25T08:10:24.068Z,99.90
2023-04-25T08:12:51.482Z,99.90
2023-04-25T08:15:19.203Z,99.90
2023-04-25T08:17:46.762Z,99.90
2023-04-25T08:20:14.352Z,99.90
2023-04-25T08:22:42.353Z,99.90
2023-04-25T08:25:27.504Z,99.90
2023-04-25T08:27:55.069Z,99.90
2023-04-25T08:30:23.586Z,99.90
2023-04-25T08:32:52.137Z,99.90
2023-04-25T08:35:27.850Z,99.90
2023-04-25T08:37:55.393Z,99.90
2023-04-25T08:40:27.155Z,99.90
2023-04-25T08:43:04.390Z,99.90
2023-04-25T08:45:32.983Z,99.90
2023-04-25T08:48:00.925Z,99.90
2023-04-25T08:50:28.486Z,99.90
2023-04-25T08:52:56.337Z,99.90
2023-04-25T08:55:24.045Z,99.90
2023-04-25T08:57:55.547Z,99.90
2023-04-25T09:00:23.088Z,99.20
2023-04-25T09:02:50.935Z,98.50
2023-04-25T09:05:20.886Z,97.90
2023-04-25T09:07:50.707Z,99.10
2023-04-25T09:10:18.513Z,97.30
2023-04-25T09:12:46.180Z,97.10
2023-04-25T09:15:20.546Z,97.10
2023-04-25T09:18:07.111Z,96.70
2023-04-25T09:20:56.370Z,97.10
2023-04-25T09:23:28.329Z,96.40
2023-04-25T09:25:55.761Z,96.40
2023-04-25T09:28:28.588Z,96.70
2023-04-25T09:30:59.106Z,96.30
2023-04-25T09:33:39.104Z,95.70
2023-04-25T09:36:10.324Z,95.70
2023-04-25T09:38:58.297Z,95.20
2023-04-25T09:41:38.642Z,95.60
2023-04-25T09:44:06.195Z,95.60
2023-04-25T09:46:39.396Z,94.20
2023-04-25T09:49:22.199Z,92.90
2023-04-25T09:52:06.381Z,92.40
2023-04-25T09:54:40.646Z,92.70
2023-04-25T09:57:16.253Z,92.50
2023-04-25T09:59:48.173Z,93.00
2023-04-25T10:02:21.219Z,92.80
2023-04-25T10:04:55.225Z,91.90
2023-04-25T10:07:39.214Z,91.10
2023-04-25T10:10:10.384Z,90.80
2023-04-25T10:12:37.786Z,90.50
2023-04-25T10:15:05.469Z,89.50
2023-04-25T10:17:32.903Z,89.80
2023-04-25T10:20:01.040Z,90.50
2023-04-25T10:22:35.812Z,89.30
2023-04-25T10:25:05.173Z,86.50
2023-04-25T10:27:32.905Z,83.00
2023-04-25T10:30:11.042Z,82.10
2023-04-25T10:32:38.439Z,82.10
2023-04-25T10:35:32.706Z,83.40
2023-04-25T10:38:13.600Z,82.80
2023-04-25T10:40:41.000Z,88.20
2023-04-25T10:43:39.883Z,90.60
2023-04-25T10:46:30.872Z,90.50
2023-04-25T10:48:59.535Z,91.40
2023-04-25T10:51:29.546Z,91.60
2023-04-25T10:54:01.590Z,92.20
2023-04-25T10:56:33.143Z,93.20
2023-04-25T10:59:12.570Z,91.90
2023-04-25T11:01:45.222Z,93.00
2023-04-25T11:04:32.329Z,93.50
2023-04-25T11:07:09.620Z,94.20
2023-04-25T11:09:39.031Z,93.10
2023-04-25T11:12:07.904Z,94.00
2023-04-25T11:14:35.410Z,93.70
2023-04-25T11:17:03.631Z,93.70
2023-04-25T11:19:31.432Z,94.50
2023-04-25T11:21:59.491Z,95.40
2023-04-25T11:24:30.789Z,97.60
2023-04-25T11:26:59.529Z,99.50
2023-04-25T11:29:30.359Z,99.90
2023-04-25T11:31:59.253Z,98.00
2023-04-25T11:34:27.066Z,98.30
2023-04-25T11:36:54.582Z,96.90
2023-04-25T11:43:58.916Z,98.10
2023-04-25T11:46:26.549Z,99.10
2023-04-25T11:48:54.466Z,97.00
2023-04-25T11:51:32.205Z,98.40
2023-04-25T11:54:18.370Z,98.90
2023-04-25T11:56:46.315Z,99.90
2023-04-25T11:59:14.170Z,99.90
2023-04-25T12:01:51.340Z,99.90
2023-04-25T12:04:21.007Z,99.90
2023-04-25T12:06:52.369Z,99.90
2023-04-25T12:09:22.312Z,99.90
2023-04-25T12:11:53.871Z,99.90
2023-04-25T12:14:29.802Z,99.90
2023-04-25T12:17:00.937Z,99.90
2023-04-25T12:19:34.366Z,99.90
2023-04-25T12:22:02.493Z,99.90
2023-04-25T12:24:29.868Z,99.90
2023-04-25T12:27:01.987Z,99.90
2023-04-25T12:29:34.858Z,99.90
2023-04-25T12:32:09.795Z,99.90
2023-04-25T12:34:37.428Z,99.90
2023-04-25T12:37:04.960Z,99.90
2023-04-25T12:39:32.357Z,99.90
2023-04-25T12:42:00.754Z,99.90
2023-04-25T12:44:28.059Z,99.90
2023-04-25T12:46:56.026Z,99.90
2023-04-25T12:49:23.550Z,99.90
2023-04-25T12:51:52.549Z,99.90
2023-04-25T12:54:19.941Z,99.90
2023-04-25T12:56:47.371Z,99.90
2023-04-25T12:59:15.068Z,99.90
2023-04-25T13:01:42.493Z,99.90
2023-04-25T13:04:09.988Z,99.90
2023-04-25T13:06:37.481Z,99.90
2023-04-25T13:09:05.289Z,99.90
2023-04-25T13:11:32.662Z,99.90
2023-04-25T13:14:00.040Z,99.90
2023-04-25T13:16:27.883Z,99.90
2023-04-25T13:18:57.380Z,99.90
2023-04-25T13:21:24.865Z,99.90
2023-04-25T13:23:52.440Z,99.90
2023-04-25T13:26:19.933Z,99.90
2023-04-25T13:28:47.247Z,99.90
2023-04-25T13:31:14.570Z,99.90
2023-04-25T13:33:41.878Z,99.90
2023-04-25T13:36:09.272Z,99.90
2023-04-25T13:38:36.642Z,99.90
2023-04-25T13:41:04.217Z,99.90
2023-04-25T13:43:31.616Z,99.90
2023-04-25T13:45:59.274Z,99.90
2023-04-25T13:48:26.661Z,99.90
2023-04-25T13:50:54.022Z,99.90
2023-04-25T13:53:22.156Z,99.90
2023-04-25T13:55:49.525Z,99.90
2023-04-25T13:58:16.972Z,99.90
2023-04-25T14:00:46.943Z,99.90
2023-04-25T14:03:14.357Z,99.90
2023-04-25T14:05:42.055Z,99.90
2023-04-25T14:08:10.253Z,99.90
2023-04-25T14:10:38.006Z,99.90
2023-04-25T14:13:10.990Z,99.90
2023-04-25T14:15:38.543Z,99.90
2023-04-25T14:18:06.572Z,99.90
2023-04-25T14:20:35.467Z,99.90
2023-04-25T14:23:02.847Z,99.90
2023-04-25T14:25:31.296Z,99.90
2023-04-25T14:27:58.652Z,99.90
2023-04-25T14:30:26.167Z,99.90
2023-04-25T14:32:53.530Z,99.90
2023-04-25T14:35:21.502Z,99.90
2023-04-25T14:37:48.888Z,99.90
2023-04-25T14:40:16.294Z,99.90
2023-04-25T14:42:43.749Z,99.90
2023-04-25T14:45:11.429Z,99.90
2023-04-25T14:47:39.058Z,99.90
2023-04-25T14:50:07.804Z,99.90
2023-04-25T14:52:35.514Z,99.90
2023-04-25T14:55:06.045Z,99.90
2023-04-25T14:57:34.154Z,99.90
2023-04-25T15:00:01.735Z,99.90
2023-04-25T15:02:29.556Z,99.90
2023-04-25T15:04:57.243Z,99.90
2023-04-25T15:07:24.929Z,99.90
2023-04-25T15:09:54.257Z,99.90
2023-04-25T15:12:21.661Z,99.90
2023-04-25T15:14:49.035Z,99.90
2023-04-25T15:17:16.532Z,99.90
2023-04-25T15:19:43.984Z,99.90
2023-04-25T15:22:14.014Z,99.90
2023-04-25T15:24:41.386Z,99.90
2023-04-25T15:27:09.488Z,99.90
2023-04-25T15:29:36.913Z,99.90
2023-04-25T15:32:04.541Z,99.90
2023-04-25T15:34:31.905Z,99.90
2023-04-25T15:36:59.309Z,99.90
2023-04-25T15:39:26.703Z,99.90
2023-04-25T15:41:54.101Z,99.90
2023-04-25T15:44:21.482Z,99.90
2023-04-25T15:46:49.978Z,99.90
2023-04-25T15:49:19.406Z,99.90
2023-04-25T15:51:46.964Z,99.90
2023-04-25T15:54:14.345Z,99.90
2023-04-25T15:56:41.744Z,99.90
2023-04-25T15:59:11.686Z,99.90
2023-04-25T16:01:40.372Z,99.90
2023-04-25T16:04:08.463Z,99.90
2023-04-25T16:06:35.962Z,99.90
2023-04-25T16:09:12.418Z,99.90
2023-04-25T16:13:03.409Z,99.90
2023-04-25T16:16:02.004Z,99.90
2023-04-25T16:18:35.838Z,99.90
2023-04-25T16:21:06.318Z,99.90
2023-04-25T16:26:53.163Z,99.90
2023-04-25T16:29:23.595Z,99.90
2023-04-25T16:31:51.220Z,99.90
2023-04-25T16:34:18.757Z,99.90
2023-04-25T16:36:46.152Z,99.90
2023-04-25T16:42:12.509Z,99.90
2023-04-25T16:45:09.907Z,99.90
2023-04-25T16:47:40.025Z,99.90
2023-04-25T16:50:15.220Z,99.90
2023-04-25T16:52:51.118Z,99.90
2023-04-25T16:55:18.912Z,99.90
2023-04-25T17:08:29.624Z,99.90
2023-04-25T17:10:57.279Z,99.90
2023-04-25T17:13:30.818Z,99.90
2023-04-25T17:15:59.778Z,99.90
2023-04-25T17:18:28.162Z,99.90
2023-04-25T17:20:55.828Z,99.90
2023-04-25T17:23:23.323Z,99.90
2023-04-25T17:25:50.991Z,99.90
2023-04-25T17:28:18.511Z,99.90
2023-04-25T17:30:46.319Z,99.90
2023-04-25T17:33:14.044Z,99.90
2023-04-25T17:35:41.548Z,99.90
2023-04-25T17:38:08.928Z,99.90
2023-04-25T17:40:36.829Z,99.90
2023-04-25T17:43:04.277Z,99.90
2023-04-25T17:45:34.754Z,99.90
2023-04-25T17:48:03.725Z,99.90
2023-04-25T17:50:31.727Z,99.90
2023-04-25T17:52:59.728Z,99.90
2023-04-25T17:55:27.158Z,99.90
2023-04-25T17:57:54.673Z,99.90
2023-04-25T18:00:22.042Z,99.90
2023-04-25T18:02:51.185Z,99.90
2023-04-25T18:05:19.147Z,99.90
2023-04-25T18:07:46.618Z,99.90
2023-04-25T18:10:14.642Z,99.90
2023-04-25T18:12:43.035Z,99.90
2023-04-25T18:15:10.622Z,99.90
2023-04-25T18:17:40.549Z,99.90
2023-04-25T18:20:14.927Z,99.90
2023-04-25T18:22:42.930Z,99.90
2023-04-25T18:25:11.143Z,99.90
2023-04-25T18:27:38.872Z,99.90
2023-04-25T18:30:08.880Z,99.90
2023-04-25T18:32:36.759Z,99.90
2023-04-25T18:35:04.710Z,99.90
2023-04-25T18:37:32.050Z,99.90
2023-04-25T18:39:59.433Z,99.90
2023-04-25T18:42:26.846Z,99.90
2023-04-25T18:44:54.144Z,99.90
2023-04-25T18:47:21.445Z,99.90
2023-04-25T18:49:50.754Z,99.90
2023-04-25T18:52:19.072Z,99.90
2023-04-25T18:54:46.377Z,99.90
2023-04-25T18:57:17.807Z,99.90
2023-04-25T18:59:46.222Z,99.90
2023-04-25T19:02:16.009Z,99.90
2023-04-25T19:04:43.946Z,99.90
2023-04-25T19:07:11.484Z,99.90
2023-04-25T19:09:38.812Z,99.90
2023-04-25T19:12:06.352Z,99.90
2023-04-25T19:14:33.769Z,99.90
2023-04-25T19:17:01.125Z,99.90
2023-04-25T19:19:28.565Z,99.90
2023-04-25T19:21:55.944Z,99.90
2023-04-25T19:24:23.322Z,99.90
2023-04-25T19:26:50.674Z,99.90
2023-04-25T19:29:18.155Z,99.90
2023-04-25T19:31:45.720Z,99.90
2023-04-25T19:34:13.825Z,99.90
2023-04-25T19:36:41.912Z,99.90
2023-04-25T19:39:09.324Z,99.90
2023-04-25T19:41:38.145Z,99.90
2023-04-25T19:44:07.345Z,99.90
2023-04-25T19:46:35.525Z,99.90
2023-04-25T19:49:06.060Z,99.90
2023-04-25T19:51:34.520Z,99.90
2023-04-25T19:54:01.818Z,99.90
2023-04-25T19:56:29.658Z,99.90
2023-04-25T19:58:58.466Z,99.90
2023-04-25T20:01:26.231Z,99.90
2023-04-25T20:03:54.031Z,99.90
2023-04-25T20:06:21.885Z,99.90
2023-04-25T20:08:50.541Z,99.90
2023-04-25T20:11:17.924Z,99.90
2023-04-25T20:13:45.430Z,99.90
2023-04-25T20:16:12.927Z,99.90
2023-04-25T20:18:40.358Z,99.90
2023-04-25T20:21:08.573Z,99.90
2023-04-25T20:23:36.771Z,99.90
2023-04-25T20:26:05.062Z,99.90
2023-04-25T20:28:33.129Z,99.90
2023-04-25T20:31:00.685Z,99.90
2023-04-25T20:33:28.161Z,99.90
2023-04-25T20:35:55.529Z,99.90
2023-04-25T20:38:23.332Z,99.90
2023-04-25T20:40:50.977Z,99.90
2023-04-25T20:43:19.847Z,99.90
2023-04-25T20:45:47.272Z,99.90
2023-04-25T20:48:15.210Z,99.90
2023-04-25T20:50:43.331Z,99.90
2023-04-25T20:53:10.647Z,99.90
2023-04-25T20:55:38.067Z,99.90
2023-04-25T20:58:06.878Z,99.90
2023-04-25T21:00:34.601Z,99.90
2023-04-25T21:03:05.198Z,99.90
2023-04-25T21:05:32.682Z,99.90
2023-04-25T21:07:59.990Z,99.90
2023-04-25T21:10:27.439Z,99.90
2023-04-25T21:12:56.555Z,99.90
2023-04-25T21:15:24.734Z,99.90
2023-04-25T21:17:52.331Z,99.90
2023-04-25T21:20:20.751Z,99.90
2023-04-25T21:22:50.379Z,99.90
2023-04-25T21:25:20.782Z,99.90
2023-04-25T21:27:49.538Z,99.90
2023-04-25T21:30:19.081Z,99.90
2023-04-25T21:32:47.730Z,99.90
2023-04-25T21:35:15.262Z,99.90
2023-04-25T21:37:43.179Z,99.90
2023-04-25T21:40:10.657Z,99.90
2023-04-25T21:42:38.113Z,99.90
2023-04-25T21:45:07.245Z,99.90
2023-04-25T21:47:34.606Z,99.90
2023-04-25T21:50:01.980Z,99.90
2023-04-25T21:52:29.344Z,99.90
2023-04-25T21:54:56.741Z,99.90
2023-04-25T21:57:24.160Z,99.90
2023-04-25T21:59:51.444Z,99.90
2023-04-25T22:02:19.333Z,99.90
2023-04-25T22:04:49.581Z,99.90
2023-04-25T22:07:16.985Z,99.90
2023-04-25T22:09:54.472Z,99.90
2023-04-25T22:12:23.536Z,99.90
2023-04-25T22:14:51.261Z,99.90
2023-04-25T22:17:19.381Z,99.90
2023-04-25T22:19:47.095Z,99.90
2023-04-25T22:22:14.582Z,99.90
2023-04-25T22:24:42.168Z,99.90
2023-04-25T22:27:11.059Z,99.90
2023-04-25T22:29:38.629Z,99.90
2023-04-25T22:32:05.992Z,99.90
2023-04-25T22:34:33.664Z,99.90
2023-04-25T22:37:00.996Z,99.90
2023-04-25T22:39:28.302Z,99.90
2023-04-25T22:41:55.909Z,99.90
2023-04-25T22:44:23.724Z,99.90
2023-04-25T22:46:51.013Z,99.90
2023-04-25T22:49:18.480Z,99.90
2023-04-25T22:51:45.859Z,99.90
2023-04-25T22:54:13.181Z,99.90
2023-04-25T22:56:40.580Z,99.90
2023-04-25T22:59:11.468Z,99.90
2023-04-25T23:01:38.825Z,99.90
2023-04-25T23:04:07.855Z,99.90
2023-04-25T23:06:35.569Z,99.90
2023-04-25T23:09:02.957Z,99.90
2023-04-25T23:11:30.327Z,99.90
2023-04-25T23:13:58.758Z,99.90
2023-04-25T23:16:26.466Z,99.90
2023-04-25T23:18:54.182Z,99.90
2023-04-25T23:21:21.802Z,99.90
2023-04-25T23:23:49.396Z,99.90
2023-04-25T23:26:16.786Z,99.90
2023-04-25T23:28:45.140Z,99.90
2023-04-25T23:31:12.570Z,99.90
2023-04-25T23:33:39.907Z,99.90
2023-04-25T23:36:07.680Z,99.90
2023-04-25T23:38:35.084Z,99.90
2023-04-25T23:41:02.385Z,99.90
2023-04-25T23:43:29.712Z,99.90
2023-04-25T23:45:57.070Z,99.90
2023-04-25T23:48:24.673Z,99.90
2023-04-25T23:50:52.043Z,99.90
2023-04-25T23:53:19.392Z,99.90
2023-04-25T23:55:48.094Z,99.90
2023-04-25T23:58:15.578Z,99.90
